Time;durP1;ratioP1;P1;durP2;ratioP2;P2;SDS_P1;SDS_P2;PMS_P1;PMS_P2;Temp;Humidity;BMP_temperature;BMP_pressure;BME280_temperature;BME280_humidity;BME280_pressure;Samples;Min_cycle;Max_cycle;Signal;HPM_P1;HPM_P2
2022/01/29 00:01:36;;;;;;;20.10;9.73;;;;;;;0.02;100.00;97738.84;5044530;28;20029;-75
2022/01/29 00:04:02;;;;;;;16.93;9.40;;;;;;;-0.05;100.00;97734.78;5045987;28;20095;-75
2022/01/29 00:06:27;;;;;;;17.93;9.60;;;;;;;-0.04;100.00;97720.94;5048530;28;20037;-75
2022/01/29 00:08:56;;;;;;;17.20;10.27;;;;;;;-0.03;100.00;97715.75;5036639;28;20040;-75
2022/01/29 00:11:27;;;;;;;18.93;9.23;;;;;;;-0.01;100.00;97718.25;5048401;28;20026;-75
2022/01/29 00:13:53;;;;;;;13.37;8.57;;;;;;;0.01;100.00;97711.28;5043067;28;21088;-74
2022/01/29 00:16:18;;;;;;;17.97;10.67;;;;;;;0.00;100.00;97714.78;5047388;28;20432;-75
2022/01/29 00:18:44;;;;;;;15.23;8.93;;;;;;;0.02;100.00;97705.22;5038564;28;20072;-75
2022/01/29 00:21:10;;;;;;;17.97;10.03;;;;;;;-0.02;100.00;97701.06;5046165;28;20478;-75
2022/01/29 00:23:35;;;;;;;16.97;9.03;;;;;;;-0.04;100.00;97701.09;5035390;28;20021;-75
2022/01/29 00:26:01;;;;;;;17.97;9.93;;;;;;;-0.05;100.00;97704.59;5031593;28;20423;-75
2022/01/29 00:28:28;;;;;;;18.23;9.77;;;;;;;-0.06;100.00;97699.50;5034712;28;20530;-75
2022/01/29 00:30:53;;;;;;;17.00;10.13;;;;;;;-0.03;100.00;97699.38;5015969;28;20705;-75
2022/01/29 00:33:19;;;;;;;19.43;9.23;;;;;;;-0.06;100.00;97691.75;5019433;28;20519;-75
2022/01/29 00:35:45;;;;;;;13.63;8.53;;;;;;;-0.03;100.00;97699.38;5034058;28;20411;-75
2022/01/29 00:38:10;;;;;;;16.93;8.90;;;;;;;-0.09;100.00;97697.03;5015582;28;20395;-74
2022/01/29 00:40:37;;;;;;;17.27;8.70;;;;;;;-0.08;100.00;97690.94;5031251;28;20037;-75
2022/01/29 00:43:04;;;;;;;16.40;9.97;;;;;;;-0.07;100.00;97682.28;5029484;28;20030;-75
2022/01/29 00:45:31;;;;;;;13.53;8.77;;;;;;;-0.05;100.00;97677.91;5042909;28;20460;-75
2022/01/29 00:47:57;;;;;;;16.40;9.73;;;;;;;-0.06;100.00;97665.88;5032535;28;20537;-74
2022/01/29 00:50:23;;;;;;;15.30;9.07;;;;;;;-0.05;100.00;97670.16;5064824;28;20500;-75
2022/01/29 00:52:48;;;;;;;20.10;9.53;;;;;;;-0.12;100.00;97672.13;5031167;28;20024;-75
2022/01/29 00:55:14;;;;;;;19.43;9.67;;;;;;;-0.12;100.00;97669.53;5017533;28;20095;-75
2022/01/29 00:57:41;;;;;;;17.17;10.20;;;;;;;-0.18;100.00;97662.00;5033693;28;20434;-74
2022/01/29 01:00:09;;;;;;;19.63;8.83;;;;;;;-0.16;100.00;97664.53;5039644;28;20465;-75
2022/01/29 01:02:35;;;;;;;18.53;10.27;;;;;;;-0.18;100.00;97661.16;5037757;28;20479;-75
2022/01/29 01:05:01;;;;;;;18.73;10.17;;;;;;;-0.21;100.00;97669.88;5036911;28;20564;-74
2022/01/29 01:07:27;;;;;;;19.27;9.00;;;;;;;-0.16;100.00;97657.63;5032973;28;20044;-75
2022/01/29 01:09:53;;;;;;;20.57;9.73;;;;;;;-0.20;100.00;97653.47;5037929;28;20797;-75
2022/01/29 01:12:18;;;;;;;15.37;9.20;;;;;;;-0.22;100.00;97652.69;5053993;28;20033;-74
2022/01/29 01:14:44;;;;;;;15.77;8.83;;;;;;;-0.25;100.00;97647.63;5060365;28;20124;-75
2022/01/29 01:17:10;;;;;;;16.90;9.70;;;;;;;-0.22;100.00;97650.09;5040237;28;20032;-75
2022/01/29 01:19:36;;;;;;;17.77;9.07;;;;;;;-0.20;100.00;97650.03;5018289;28;20491;-75
2022/01/29 01:22:03;;;;;;;18.57;8.63;;;;;;;-0.21;100.00;97644.03;5036595;28;20037;-75
2022/01/29 01:24:29;;;;;;;17.00;9.13;;;;;;;-0.21;100.00;97649.19;5032264;28;20450;-75
2022/01/29 01:26:55;;;;;;;22.80;11.63;;;;;;;-0.24;100.00;97652.72;5027403;28;20495;-75
2022/01/29 01:29:21;;;;;;;18.53;8.93;;;;;;;-0.19;100.00;97646.56;5036854;28;20506;-75
2022/01/29 01:31:47;;;;;;;15.90;9.00;;;;;;;-0.20;100.00;97650.03;5037829;28;20047;-75
2022/01/29 01:34:13;;;;;;;17.30;9.63;;;;;;;-0.17;100.00;97650.75;5028187;28;20476;-75
2022/01/29 01:36:46;;;;;;;16.40;8.70;;;;;;;-0.18;100.00;97650.81;5034161;28;20658;-77
2022/01/29 01:39:15;;;;;;;17.38;9.77;;;;;;;-0.13;100.00;97651.50;5028659;28;20558;-75
2022/01/29 01:41:51;;;;;;;17.07;9.33;;;;;;;-0.14;100.00;97647.22;5066737;28;20041;-75
2022/01/29 01:44:17;;;;;;;16.77;9.33;;;;;;;-0.16;100.00;97646.44;5037180;28;20482;-75
2022/01/29 01:46:43;;;;;;;17.10;11.30;;;;;;;-0.14;100.00;97654.97;5055706;28;20464;-75
2022/01/29 01:49:09;;;;;;;20.87;10.10;;;;;;;-0.13;100.00;97661.84;5033653;28;20454;-75
2022/01/29 01:51:36;;;;;;;16.97;9.27;;;;;;;-0.16;100.00;97656.78;5034113;28;20554;-75
2022/01/29 01:54:03;;;;;;;22.40;9.97;;;;;;;-0.10;100.00;97641.88;5034425;28;20499;-74
2022/01/29 01:56:28;;;;;;;16.70;10.00;;;;;;;-0.14;100.00;97640.28;5033987;28;20471;-74
2022/01/29 01:58:57;;;;;;;16.40;9.30;;;;;;;-0.10;100.00;97639.31;5034694;28;21342;-75
2022/01/29 02:01:23;;;;;;;16.20;8.90;;;;;;;-0.07;100.00;97633.16;5008217;28;20390;-75
2022/01/29 02:03:49;;;;;;;20.83;9.33;;;;;;;-0.07;100.00;97627.97;5036707;28;20452;-76
2022/01/29 02:06:15;;;;;;;16.77;8.93;;;;;;;-0.08;100.00;97619.38;5032904;28;20029;-75
2022/01/29 02:08:41;;;;;;;17.77;9.40;;;;;;;-0.04;100.00;97614.94;5031186;28;20549;-75
2022/01/29 02:11:08;;;;;;;14.93;8.63;;;;;;;-0.03;100.00;97608.88;5028327;28;20592;-75
2022/01/29 02:13:34;;;;;;;18.83;9.57;;;;;;;-0.04;100.00;97600.25;5029065;28;20486;-75
2022/01/29 02:16:01;;;;;;;13.13;8.43;;;;;;;-0.05;100.00;97608.91;5018255;28;21059;-74
2022/01/29 02:18:27;;;;;;;17.87;8.90;;;;;;;-0.05;100.00;97611.50;5031712;28;20040;-75
2022/01/29 02:20:53;;;;;;;15.20;8.73;;;;;;;-0.04;100.00;97602.00;5008184;28;20460;-74
2022/01/29 02:23:20;;;;;;;15.00;8.27;;;;;;;-0.03;100.00;97590.78;5032364;28;20105;-75
2022/01/29 02:25:47;;;;;;;15.40;8.43;;;;;;;-0.05;100.00;97583.06;5026242;28;20615;-75
2022/01/29 02:28:16;;;;;;;16.30;8.90;;;;;;;-0.12;100.00;97591.13;5034543;28;20991;-75
2022/01/29 02:30:44;;;;;;;14.77;8.90;;;;;;;-0.15;100.00;97593.81;5017717;28;20456;-74
2022/01/29 02:33:13;;;;;;;17.20;8.90;;;;;;;-0.20;100.00;97591.44;5032507;28;20503;-75
2022/01/29 02:35:45;;;;;;;17.63;9.73;;;;;;;-0.15;100.00;97586.06;5028267;28;20547;-75
2022/01/29 02:38:13;;;;;;;13.90;8.13;;;;;;;-0.18;100.00;97578.44;5029267;28;20480;-74
2022/01/29 02:40:50;;;;;;;17.47;8.03;;;;;;;-0.21;100.00;97576.81;5036882;28;20472;-75
2022/01/29 02:43:20;;;;;;;14.20;8.07;;;;;;;-0.15;100.00;97568.81;5029558;28;20483;-75
2022/01/29 02:45:50;;;;;;;14.83;8.47;;;;;;;-0.17;100.00;97562.00;5035122;28;21121;-75
2022/01/29 02:48:16;;;;;;;14.77;8.40;;;;;;;-0.17;100.00;97551.66;5030954;28;20428;-75
2022/01/29 02:50:42;;;;;;;14.57;8.50;;;;;;;-0.20;100.00;97555.25;5036171;28;20885;-75
2022/01/29 02:53:08;;;;;;;16.17;7.90;;;;;;;-0.18;100.00;97543.06;5014356;28;20044;-75
2022/01/29 02:55:34;;;;;;;14.83;7.70;;;;;;;-0.14;100.00;97536.03;5031647;28;20045;-75
2022/01/29 02:58:00;;;;;;;14.03;7.43;;;;;;;-0.18;100.00;97537.06;5029159;28;20996;-75
2022/01/29 03:00:26;;;;;;;14.90;8.33;;;;;;;-0.21;100.00;97526.84;5034196;28;20037;-75
2022/01/29 03:02:52;;;;;;;13.80;7.67;;;;;;;-0.20;100.00;97528.53;5038514;28;20467;-75
2022/01/29 03:05:18;;;;;;;13.70;7.37;;;;;;;-0.25;100.00;97523.53;5014526;28;20037;-75
2022/01/29 03:07:43;;;;;;;13.10;7.00;;;;;;;-0.26;100.00;97520.13;5030122;28;20530;-75
2022/01/29 03:10:09;;;;;;;14.83;7.80;;;;;;;-0.20;100.00;97510.41;5017163;28;20040;-75
2022/01/29 03:12:37;;;;;;;13.10;6.80;;;;;;;-0.22;100.00;97507.91;5011403;28;20033;-75
2022/01/29 03:15:11;;;;;;;11.50;7.17;;;;;;;-0.26;100.00;97506.38;5029058;28;20066;-75
2022/01/29 03:17:37;;;;;;;15.23;8.30;;;;;;;-0.26;100.00;97506.38;5039732;28;20472;-75
2022/01/29 03:20:04;;;;;;;14.93;8.33;;;;;;;-0.26;100.00;97507.19;5029583;28;20448;-75
2022/01/29 03:22:30;;;;;;;12.07;6.33;;;;;;;-0.18;100.00;97508.63;5034644;28;20115;-75
2022/01/29 03:24:55;;;;;;;14.23;7.80;;;;;;;-0.22;100.00;97504.50;5033046;28;20463;-74
2022/01/29 03:27:21;;;;;;;16.00;7.13;;;;;;;-0.21;100.00;97508.75;5030359;28;20033;-75
2022/01/29 03:29:47;;;;;;;15.80;7.67;;;;;;;-0.28;100.00;97505.56;5035772;28;20055;-75
2022/01/29 03:32:13;;;;;;;19.07;7.87;;;;;;;-0.26;100.00;97494.28;5012453;28;20456;-75
2022/01/29 03:34:39;;;;;;;15.60;7.70;;;;;;;-0.28;100.00;97498.66;5030082;28;20061;-75
2022/01/29 03:37:05;;;;;;;13.97;6.37;;;;;;;-0.25;100.00;97489.94;5031054;28;21004;-75
2022/01/29 03:39:33;;;;;;;12.63;7.53;;;;;;;-0.22;100.00;97487.22;5028508;28;20041;-75
2022/01/29 03:42:03;;;;;;;13.50;7.33;;;;;;;-0.25;100.00;97489.94;5054670;28;20418;-75
2022/01/29 03:44:29;;;;;;;17.07;7.17;;;;;;;-0.23;100.00;97485.56;5038513;28;20474;-75
2022/01/29 03:46:55;;;;;;;12.90;7.37;;;;;;;-0.18;100.00;97493.13;5023113;28;20472;-74
2022/01/29 03:49:20;;;;;;;13.83;6.87;;;;;;;-0.21;100.00;97488.06;5025513;28;20443;-73
2022/01/29 03:51:46;;;;;;;12.07;7.27;;;;;;;-0.26;100.00;97489.09;5023366;28;20517;-75
2022/01/29 03:54:12;;;;;;;13.33;8.27;;;;;;;-0.28;100.00;97483.13;5038644;28;20112;-75
2022/01/29 03:56:38;;;;;;;15.20;7.70;;;;;;;-0.27;100.00;97478.81;5060696;28;20122;-75
2022/01/29 03:59:03;;;;;;;14.17;7.17;;;;;;;-0.28;100.00;97466.78;5024549;28;20030;-75
2022/01/29 04:01:29;;;;;;;12.57;7.37;;;;;;;-0.28;100.00;97465.03;5060851;28;20059;-74
2022/01/29 04:03:55;;;;;;;12.20;7.43;;;;;;;-0.28;100.00;97470.22;5036030;28;20029;-75
2022/01/29 04:06:20;;;;;;;16.33;7.57;;;;;;;-0.24;100.00;97469.19;5030290;28;20033;-75
2022/01/29 04:08:46;;;;;;;17.90;7.97;;;;;;;-0.25;100.00;97464.09;5036904;28;20033;-75
2022/01/29 04:11:13;;;;;;;16.23;7.90;;;;;;;-0.31;100.00;97467.75;5020571;28;20033;-75
2022/01/29 04:13:42;;;;;;;16.40;7.60;;;;;;;-0.33;100.00;97467.00;5036567;28;20060;-75
2022/01/29 04:16:10;;;;;;;14.33;7.60;;;;;;;-0.32;100.00;97460.91;5045393;28;20487;-75
2022/01/29 04:18:36;;;;;;;12.63;7.70;;;;;;;-0.30;100.00;97455.69;5036098;28;20468;-74
2022/01/29 04:21:03;;;;;;;15.27;8.13;;;;;;;-0.36;100.00;97454.19;5044611;28;20521;-74
2022/01/29 04:23:29;;;;;;;14.47;8.07;;;;;;;-0.34;100.00;97462.69;5032349;28;20026;-75
2022/01/29 04:25:55;;;;;;;13.47;7.43;;;;;;;-0.33;100.00;97461.81;5037452;28;20524;-75
2022/01/29 04:28:24;;;;;;;12.90;7.10;;;;;;;-0.36;100.00;97463.69;5025697;28;20079;-75
2022/01/29 04:30:56;;;;;;;14.07;7.07;;;;;;;-0.29;100.00;97472.88;5018628;28;20463;-75
2022/01/29 04:33:30;;;;;;;12.60;7.80;;;;;;;-0.34;100.00;97474.78;5036029;28;20448;-75
2022/01/29 04:36:03;;;;;;;15.93;7.10;;;;;;;-0.36;100.00;97468.88;5031539;28;20499;-75
2022/01/29 04:38:30;;;;;;;13.13;7.10;;;;;;;-0.38;100.00;97466.31;5040626;28;21024;-74
2022/01/29 04:40:57;;;;;;;16.60;7.50;;;;;;;-0.36;100.00;97464.53;5033222;28;20444;-75
2022/01/29 04:43:23;;;;;;;11.40;7.27;;;;;;;-0.40;100.00;97468.16;5036625;28;21510;-75
2022/01/29 04:45:48;;;;;;;12.20;7.07;;;;;;;-0.44;100.00;97456.22;5037794;28;20458;-74
2022/01/29 04:48:15;;;;;;;15.63;6.87;;;;;;;-0.46;100.00;97460.63;5031371;28;20720;-75
2022/01/29 04:50:41;;;;;;;18.43;7.83;;;;;;;-0.46;100.00;97465.81;5010788;28;20039;-75
2022/01/29 04:53:07;;;;;;;13.90;7.33;;;;;;;-0.45;100.00;97459.72;5041095;28;20471;-74
2022/01/29 04:55:33;;;;;;;13.80;6.80;;;;;;;-0.47;100.00;97453.75;5030089;28;20475;-75
2022/01/29 04:57:59;;;;;;;15.43;6.43;;;;;;;-0.42;100.00;97446.69;5034100;28;20029;-75
2022/01/29 05:00:25;;;;;;;11.77;6.57;;;;;;;-0.37;100.00;97457.69;5014865;28;20543;-74
2022/01/29 05:02:56;;;;;;;14.80;6.53;;;;;;;-0.35;100.00;97449.84;5017068;28;20030;-74
2022/01/29 05:05:23;;;;;;;11.97;5.67;;;;;;;-0.30;100.00;97464.28;5033977;28;20608;-75
2022/01/29 05:07:48;;;;;;;11.53;5.33;;;;;;;-0.26;100.00;97446.91;5055681;28;20469;-75
2022/01/29 05:10:14;;;;;;;14.33;7.10;;;;;;;-0.24;100.00;97450.25;5020054;28;20475;-75
2022/01/29 05:28:49;;;;;;;12.77;5.70;;;;;;;-0.26;100.00;97455.50;5036905;28;20437;-75
2022/01/29 05:31:15;;;;;;;10.57;5.50;;;;;;;-0.28;100.00;97457.28;5057972;28;21055;-75
2022/01/29 05:33:41;;;;;;;10.00;5.10;;;;;;;-0.29;100.00;97440.09;5018506;28;20028;-75
2022/01/29 05:36:07;;;;;;;13.97;6.63;;;;;;;-0.28;100.00;97436.59;5012955;28;20529;-75
2022/01/29 05:38:33;;;;;;;10.33;5.67;;;;;;;-0.28;100.00;97433.19;5030601;28;20484;-74
2022/01/29 05:40:59;;;;;;;12.40;5.70;;;;;;;-0.22;100.00;97422.59;5033482;28;20036;-75
2022/01/29 05:43:25;;;;;;;15.17;6.30;;;;;;;-0.25;100.00;97409.81;5009165;28;20857;-74
2022/01/29 05:45:51;;;;;;;13.17;5.90;;;;;;;-0.20;100.00;97401.84;5011629;28;20055;-74
2022/01/29 05:48:16;;;;;;;16.93;6.43;;;;;;;-0.28;100.00;97410.75;5015371;28;20038;-75
2022/01/29 05:50:42;;;;;;;11.93;5.47;;;;;;;-0.28;100.00;97407.34;5011026;28;20487;-75
2022/01/29 05:53:08;;;;;;;10.33;5.07;;;;;;;-0.26;100.00;97414.13;5033292;28;20033;-74
2022/01/29 05:55:34;;;;;;;10.50;5.40;;;;;;;-0.20;100.00;97412.19;5034614;28;20045;-74
2022/01/29 05:58:00;;;;;;;8.60;4.80;;;;;;;-0.21;100.00;97411.34;5014241;28;20033;-75
2022/01/29 06:00:25;;;;;;;10.57;5.90;;;;;;;-0.28;100.00;97407.34;5034293;28;20043;-75
2022/01/29 06:03:01;;;;;;;15.30;4.90;;;;;;;-0.29;100.00;97411.69;5056071;28;20021;-75
2022/01/29 06:05:27;;;;;;;11.30;5.83;;;;;;;-0.30;100.00;97419.50;5017605;28;20483;-74
2022/01/29 06:07:53;;;;;;;15.80;5.77;;;;;;;-0.29;100.00;97414.25;5014986;28;20483;-75
2022/01/29 06:10:19;;;;;;;10.73;5.60;;;;;;;-0.31;100.00;97416.06;5035796;28;20592;-75
2022/01/29 06:12:45;;;;;;;10.00;4.80;;;;;;;-0.30;100.00;97412.59;5027382;28;20037;-75
2022/01/29 06:15:11;;;;;;;8.87;5.17;;;;;;;-0.31;100.00;97410.88;5035481;28;20106;-74
2022/01/29 06:17:38;;;;;;;10.57;4.90;;;;;;;-0.31;100.00;97413.47;5030386;28;20041;-75
2022/01/29 06:20:04;;;;;;;9.90;5.20;;;;;;;-0.26;100.00;97414.13;5023915;28;20791;-74
2022/01/29 06:22:30;;;;;;;9.77;5.13;;;;;;;-0.18;100.00;97413.81;5010535;28;20500;-75
2022/01/29 06:24:56;;;;;;;9.43;5.00;;;;;;;-0.16;100.00;97424.09;5032021;28;21006;-75
2022/01/29 06:27:21;;;;;;;11.63;5.10;;;;;;;-0.23;100.00;97418.34;5026392;28;20057;-76
2022/01/29 06:29:47;;;;;;;12.90;5.67;;;;;;;-0.20;100.00;97422.53;5016125;28;20499;-76
2022/01/29 06:32:13;;;;;;;10.43;4.37;;;;;;;-0.13;100.00;97424.81;5032779;28;20052;-80
2022/01/29 06:34:38;;;;;;;11.43;4.97;;;;;;;-0.15;100.00;97425.78;5014064;28;20060;-79
2022/01/29 06:37:04;;;;;;;9.83;4.70;;;;;;;-0.13;100.00;97429.97;5037014;28;20087;-79
2022/01/29 06:39:31;;;;;;;10.43;5.17;;;;;;;-0.14;100.00;97430.88;5018032;28;20037;-80
2022/01/29 06:41:56;;;;;;;12.17;5.33;;;;;;;-0.17;100.00;97435.31;5038725;28;20583;-80
2022/01/29 06:44:22;;;;;;;9.43;5.20;;;;;;;-0.13;100.00;97426.56;5039571;28;20453;-79
2022/01/29 06:46:47;;;;;;;11.90;6.37;;;;;;;-0.14;100.00;97433.44;5015905;28;20091;-80
2022/01/29 06:49:13;;;;;;;10.37;5.47;;;;;;;-0.12;100.00;97425.66;5035840;28;20042;-79
2022/01/29 06:51:39;;;;;;;13.73;6.93;;;;;;;-0.14;100.00;97441.22;5032566;28;20021;-80
2022/01/29 06:54:04;;;;;;;16.37;8.67;;;;;;;-0.11;100.00;97432.50;5018610;28;20057;-79
2022/01/29 06:56:30;;;;;;;18.87;9.87;;;;;;;-0.16;100.00;97434.44;5034818;28;20029;-80
2022/01/29 06:58:56;;;;;;;24.23;11.90;;;;;;;-0.21;100.00;97423.44;5037779;28;20475;-80
2022/01/29 07:01:22;;;;;;;21.90;13.67;;;;;;;-0.25;100.00;97426.16;5040971;28;20040;-79
2022/01/29 07:03:47;;;;;;;27.43;13.93;;;;;;;-0.29;100.00;97429.78;5068023;28;20060;-79
2022/01/29 07:06:13;;;;;;;26.13;14.03;;;;;;;-0.29;100.00;97427.19;5022175;28;21012;-80
2022/01/29 07:08:39;;;;;;;25.10;13.33;;;;;;;-0.30;100.00;97428.09;5028235;28;20029;-80
2022/01/29 07:11:05;;;;;;;30.87;18.47;;;;;;;-0.33;100.00;97424.81;5024316;28;20029;-80
2022/01/29 07:13:31;;;;;;;28.90;16.17;;;;;;;-0.35;100.00;97429.19;5017700;28;21279;-80
2022/01/29 07:15:57;;;;;;;28.47;16.37;;;;;;;-0.35;100.00;97413.69;5030882;28;20467;-80
2022/01/29 07:18:23;;;;;;;28.07;15.87;;;;;;;-0.32;100.00;97398.88;5037876;28;20468;-77
2022/01/29 07:20:48;;;;;;;30.80;17.13;;;;;;;-0.29;100.00;97392.75;5067138;28;20029;-78
2022/01/29 07:23:14;;;;;;;28.70;15.60;;;;;;;-0.27;100.00;97406.44;5042118;28;20107;-76
2022/01/29 07:25:40;;;;;;;25.97;15.63;;;;;;;-0.25;100.00;97407.22;5036036;28;20533;-77
2022/01/29 07:28:06;;;;;;;30.37;18.00;;;;;;;-0.24;100.00;97421.81;5035418;28;20037;-77
2022/01/29 07:30:31;;;;;;;25.43;16.50;;;;;;;-0.22;100.00;97425.19;5033543;28;20038;-77
2022/01/29 07:32:57;;;;;;;29.40;15.73;;;;;;;-0.25;100.00;97428.72;5019763;28;20526;-78
2022/01/29 07:35:23;;;;;;;29.17;17.47;;;;;;;-0.14;100.00;97424.84;5030230;28;20033;-79
2022/01/29 07:37:51;;;;;;;27.83;17.23;;;;;;;-0.18;100.00;97428.47;5038684;28;20595;-76
2022/01/29 07:40:19;;;;;;;26.03;15.63;;;;;;;-0.11;100.00;97435.06;5039297;28;20125;-78
2022/01/29 07:42:45;;;;;;;27.83;16.67;;;;;;;-0.15;100.00;97426.59;5059233;28;20504;-78
2022/01/29 07:45:11;;;;;;;28.43;17.03;;;;;;;-0.09;100.00;97428.09;5011638;28;20475;-79
2022/01/29 07:47:36;;;;;;;26.73;15.80;;;;;;;-0.12;100.00;97426.47;5025933;28;20041;-78
2022/01/29 07:50:03;;;;;;;24.37;15.93;;;;;;;-0.13;100.00;97423.97;5023539;28;20041;-77
2022/01/29 07:52:30;;;;;;;33.77;17.73;;;;;;;-0.12;100.00;97417.88;5036053;28;20039;-77
2022/01/29 07:54:56;;;;;;;30.90;18.63;;;;;;;-0.10;100.00;97409.16;5043334;28;20507;-78
2022/01/29 07:57:21;;;;;;;29.40;16.90;;;;;;;-0.13;100.00;97404.13;5038714;28;21009;-78
2022/01/29 07:59:47;;;;;;;26.20;16.73;;;;;;;-0.13;100.00;97408.47;5025157;28;20529;-78
2022/01/29 08:02:13;;;;;;;28.70;16.90;;;;;;;-0.14;100.00;97411.94;5032058;28;20030;-79
2022/01/29 08:04:38;;;;;;;27.07;16.00;;;;;;;-0.12;100.00;97389.44;5027745;28;20546;-77
2022/01/29 08:07:04;;;;;;;24.63;14.90;;;;;;;-0.12;100.00;97389.44;5020752;28;20545;-77
2022/01/29 08:09:29;;;;;;;56.57;36.33;;;;;;;-0.13;100.00;97387.78;5024177;28;20034;-78
2022/01/29 08:11:55;;;;;;;27.17;15.50;;;;;;;-0.12;100.00;97389.44;5065149;28;20477;-78
2022/01/29 08:14:23;;;;;;;21.27;13.20;;;;;;;-0.11;100.00;97380.78;5051784;28;20026;-80
2022/01/29 08:16:48;;;;;;;26.93;16.47;;;;;;;-0.16;100.00;97387.91;5046386;28;20119;-78
2022/01/29 08:19:14;;;;;;;26.50;15.13;;;;;;;-0.11;100.00;97391.97;5021187;28;21032;-79
2022/01/29 08:21:40;;;;;;;33.87;19.03;;;;;;;-0.13;100.00;97391.19;5026692;28;20091;-78
2022/01/29 08:24:08;;;;;;;23.00;14.80;;;;;;;-0.09;100.00;97390.16;5023202;28;20535;-79
2022/01/29 08:26:35;;;;;;;25.40;14.63;;;;;;;0.04;100.00;97385.31;5037996;28;20052;-80
2022/01/29 08:29:00;;;;;;;32.13;20.60;;;;;;;0.01;100.00;97398.38;5023391;28;21363;-79
2022/01/29 08:31:26;;;;;;;25.80;14.63;;;;;;;0.02;100.00;97402.63;5037083;28;20555;-79
2022/01/29 08:33:52;;;;;;;21.73;12.80;;;;;;;-0.01;100.00;97389.81;5037551;28;20044;-78
2022/01/29 08:36:18;;;;;;;22.87;14.03;;;;;;;0.04;100.00;97390.47;5038875;28;20442;-80
2022/01/29 08:38:44;;;;;;;24.70;13.17;;;;;;;0.03;100.00;97387.94;5021996;28;20052;-78
2022/01/29 08:41:11;;;;;;;21.30;12.50;;;;;;;0.08;100.00;97381.69;5038239;28;20471;-79
2022/01/29 08:43:37;;;;;;;19.00;12.03;;;;;;;0.15;100.00;97383.09;5053538;28;20117;-78
2022/01/29 08:46:03;;;;;;;22.33;12.13;;;;;;;0.16;100.00;97384.75;5025609;28;20559;-76
2022/01/29 08:48:34;;;;;;;20.80;12.47;;;;;;;0.26;100.00;97386.94;5034091;28;20027;-77
2022/01/29 08:51:00;;;;;;;19.43;11.27;;;;;;;0.30;100.00;97393.66;5017951;28;20032;-78
2022/01/29 08:53:26;;;;;;;16.33;10.60;;;;;;;0.33;100.00;97396.94;5028260;28;20472;-79
2022/01/29 08:55:52;;;;;;;18.23;9.93;;;;;;;0.41;100.00;97394.03;5034901;28;20115;-77
2022/01/29 08:58:18;;;;;;;20.80;12.63;;;;;;;0.40;100.00;97387.16;5042459;28;20870;-77
2022/01/29 09:00:45;;;;;;;17.13;10.00;;;;;;;0.39;100.00;97391.50;5054904;28;20037;-77
2022/01/29 09:03:14;;;;;;;17.43;9.47;;;;;;;0.42;100.00;97382.78;5043930;28;20467;-78
2022/01/29 09:05:40;;;;;;;18.20;9.37;;;;;;;0.47;100.00;97381.66;5049890;28;20442;-77
2022/01/29 09:08:06;;;;;;;17.47;8.87;;;;;;;0.48;100.00;97385.09;5027488;28;20997;-78
2022/01/29 09:10:32;;;;;;;16.40;9.07;;;;;;;0.45;100.00;97385.22;5034015;28;20029;-75
2022/01/29 09:12:58;;;;;;;20.90;12.00;;;;;;;0.49;100.00;97386.75;5026768;28;20041;-78
2022/01/29 09:15:24;;;;;;;16.83;9.57;;;;;;;0.54;100.00;97374.47;5048426;28;20461;-77
2022/01/29 09:17:49;;;;;;;14.13;8.23;;;;;;;0.61;100.00;97370.69;5039874;28;20168;-78
2022/01/29 09:20:15;;;;;;;14.87;8.40;;;;;;;0.64;100.00;97365.38;5044371;28;20563;-80
2022/01/29 09:22:44;;;;;;;15.30;8.00;;;;;;;0.70;100.00;97367.69;5021414;28;20021;-79
2022/01/29 09:25:10;;;;;;;14.37;8.77;;;;;;;0.76;100.00;97363.94;5018535;28;20624;-77
2022/01/29 09:27:35;;;;;;;14.57;8.27;;;;;;;0.70;100.00;97356.47;5027774;28;20503;-77
2022/01/29 09:30:03;;;;;;;12.63;8.07;;;;;;;0.69;100.00;97358.22;5043041;28;20101;-78
2022/01/29 09:32:29;;;;;;;17.63;9.17;;;;;;;0.69;100.00;97357.38;5035461;28;20036;-78
2022/01/29 09:34:54;;;;;;;11.30;7.00;;;;;;;0.73;100.00;97361.50;5072277;28;20533;-77
2022/01/29 09:37:20;;;;;;;13.87;7.20;;;;;;;0.73;100.00;97352.91;5035379;28;21239;-78
2022/01/29 09:39:47;;;;;;;11.87;6.67;;;;;;;0.73;100.00;97358.06;5021749;28;20315;-77
2022/01/29 09:42:13;;;;;;;13.27;6.50;;;;;;;0.80;100.00;97359.47;5020381;28;20636;-77
2022/01/29 09:44:41;;;;;;;23.03;15.37;;;;;;;0.84;100.00;97351.50;5038207;28;20877;-78
2022/01/29 09:47:07;;;;;;;12.90;5.63;;;;;;;0.84;100.00;97361.00;5036965;28;20800;-77
2022/01/29 09:49:34;;;;;;;8.87;5.30;;;;;;;1.02;100.00;97348.94;5037666;28;20463;-78
2022/01/29 09:52:00;;;;;;;14.07;5.53;;;;;;;1.15;100.00;97337.91;5037754;28;20079;-80
2022/01/29 09:54:26;;;;;;;10.53;5.83;;;;;;;1.29;100.00;97337.25;5019727;28;20531;-77
2022/01/29 09:56:52;;;;;;;9.57;5.67;;;;;;;1.40;100.00;97336.72;5023801;28;20931;-76
2022/01/29 09:59:18;;;;;;;10.27;4.40;;;;;;;1.33;100.00;97333.59;5009464;28;20037;-78
2022/01/29 10:01:44;;;;;;;12.33;5.27;;;;;;;1.25;100.00;97335.72;5033105;28;20599;-77
2022/01/29 10:04:09;;;;;;;8.47;4.27;;;;;;;1.32;100.00;97331.09;5035860;28;20390;-77
2022/01/29 10:06:36;;;;;;;11.03;4.83;;;;;;;1.27;100.00;97328.69;5029256;28;20044;-77
2022/01/29 10:09:09;;;;;;;11.70;4.57;;;;;;;1.28;100.00;97324.38;5033326;28;20032;-78
2022/01/29 10:11:36;;;;;;;13.10;7.37;;;;;;;1.31;100.00;97332.84;5044226;28;20455;-79
2022/01/29 10:14:04;;;;;;;25.03;7.20;;;;;;;1.37;100.00;97329.91;5033342;28;20029;-77
2022/01/29 10:16:32;;;;;;;9.07;5.03;;;;;;;1.41;100.00;97322.88;5057919;28;20026;-78
2022/01/29 10:18:59;;;;;;;11.60;6.37;;;;;;;1.53;100.00;97324.00;5041165;28;20452;-78
2022/01/29 10:21:29;;;;;;;12.53;5.67;;;;;;;1.57;100.00;97320.31;5021548;28;20035;-78
2022/01/29 10:24:28;;;;;;;12.37;6.07;;;;;;;1.78;100.00;97311.47;5019061;28;20506;-77
2022/01/29 10:26:54;;;;;;;10.17;5.27;;;;;;;1.83;100.00;97313.81;4993170;28;20456;-78
2022/01/29 10:29:23;;;;;;;9.73;4.57;;;;;;;1.88;100.00;97314.44;5038768;28;20450;-78
2022/01/29 10:31:52;;;;;;;10.23;5.90;;;;;;;2.03;100.00;97312.78;5035530;28;20375;-78
2022/01/29 10:34:29;;;;;;;11.10;5.50;;;;;;;2.01;100.00;97307.69;5037233;28;20087;-78
2022/01/29 10:37:18;;;;;;;10.50;5.50;;;;;;;2.08;100.00;97305.63;5029825;28;20094;-78
2022/01/29 10:39:53;;;;;;;13.43;7.33;;;;;;;2.09;100.00;97302.94;5017572;28;20061;-77
2022/01/29 10:42:24;;;;;;;10.57;5.47;;;;;;;2.20;100.00;97304.13;5039811;28;20028;-78
2022/01/29 10:44:55;;;;;;;11.23;5.63;;;;;;;2.20;100.00;97312.72;5037923;28;20115;-80
2022/01/29 10:47:21;;;;;;;7.47;3.50;;;;;;;2.21;100.00;97300.59;5041873;28;20040;-77
2022/01/29 10:49:52;;;;;;;9.27;4.80;;;;;;;2.29;100.00;97295.84;5032558;28;20041;-78
2022/01/29 10:52:40;;;;;;;9.60;5.07;;;;;;;2.34;100.00;97294.66;5029289;28;20498;-76
2022/01/29 10:55:08;;;;;;;18.67;9.07;;;;;;;2.41;100.00;97297.75;5034236;28;20033;-77
2022/01/29 10:57:45;;;;;;;11.87;5.80;;;;;;;2.45;100.00;97299.28;5036552;28;20829;-77
2022/01/29 11:00:18;;;;;;;12.43;5.73;;;;;;;2.46;100.00;97289.75;5035310;28;20047;-78
2022/01/29 11:02:45;;;;;;;13.55;7.93;;;;;;;2.50;100.00;97289.47;5051237;28;20191;-76
2022/01/29 11:05:11;;;;;;;13.80;7.67;;;;;;;2.47;100.00;97281.84;5017393;28;20368;-77
2022/01/29 11:07:38;;;;;;;33.83;17.70;;;;;;;2.56;100.00;97280.53;5017246;28;20037;-77
2022/01/29 11:10:06;;;;;;;38.33;21.20;;;;;;;2.56;100.00;97278.78;5017259;28;20368;-77
2022/01/29 11:12:36;;;;;;;14.93;7.90;;;;;;;2.49;100.00;97280.03;5032114;28;20075;-77
2022/01/29 11:15:03;;;;;;;23.70;11.43;;;;;;;2.55;100.00;97277.09;5016082;28;20383;-77
2022/01/29 11:17:32;;;;;;;19.33;8.73;;;;;;;2.63;100.00;97278.44;5030206;28;20061;-77
2022/01/29 11:20:00;;;;;;;25.43;12.37;;;;;;;2.55;100.00;97278.88;5023100;28;20033;-77
2022/01/29 11:22:38;;;;;;;28.20;11.40;;;;;;;2.54;100.00;97275.41;5031188;28;20037;-77
2022/01/29 11:25:15;;;;;;;14.40;6.80;;;;;;;2.68;100.00;97268.63;5029471;28;20025;-76
2022/01/29 11:27:43;;;;;;;13.03;6.77;;;;;;;2.69;100.00;97262.53;5019419;28;20383;-78
2022/01/29 11:30:09;;;;;;;12.17;5.67;;;;;;;2.78;100.00;97269.78;5015852;28;20379;-77
2022/01/29 11:32:42;;;;;;;9.00;5.30;;;;;;;2.73;100.00;97261.41;5039691;28;20040;-77